^^
Meteo Knjazevac Station Historical Data
Daily Summary for March 15, 2021 Units:  English    Metric   Both
Daily Weekly Monthly Yearly Custom
  High: Low: Average:
Temperature: 36.1 °F 30 °F 31.7 °F
Dew Point: 29.8 °F 26.7 °F 28.1 °F
Humidity: 91% 74% 87%
Wind Speed: 9mph 0mph 3.7mph
Wind Gust: 16mph - -
Wind- - WSW
Pressure: 30.08 in 29.96 in -
Precipitation: 0.00 in    
Historical Graphs
 
 
Tabular Data for March 15, 2021
Time Temperature Dew Point Pressure Wind Wind Speed Wind Gust Humidity Rainfall Rate (Hourly) solar Conditions
00:00 30.9 °F 28.1 °F 29.96 in Calm   5 mph 89% 0.00 in 0 W/m2
00:10 31 °F 28.2 °F 29.96 in WSW 5 mph 7 mph 89% 0.00 in 0 W/m2
00:20 31.1 °F 28.2 °F 29.96 in WSW 5 mph 8 mph 89% 0.00 in 0 W/m2
00:30 31.1 °F 28.5 °F 29.96 in WSW 3 mph 7 mph 90% 0.00 in 0 W/m2
00:40 31.1 °F 28.2 °F 29.96 in WNW 2 mph 11 mph 89% 0.00 in 0 W/m2
00:50 31.1 °F 28.2 °F 29.96 in West 1 mph 8 mph 89% 0.00 in 0 W/m2
01:00 31.3 °F 28.1 °F 29.96 in West 3 mph 10 mph 88% 0.00 in 0 W/m2
01:10 31.3 °F 28.4 °F 29.97 in SSW 2 mph 6 mph 89% 0.00 in 0 W/m2
01:20 31.3 °F 28.1 °F 29.97 in SW 2 mph 7 mph 88% 0.00 in 0 W/m2
01:30 31.3 °F 28.1 °F 29.97 in West 3 mph 10 mph 88% 0.00 in 0 W/m2
01:40 31.3 °F 28.4 °F 29.98 in WNW 3 mph 8 mph 89% 0.00 in 0 W/m2
01:50 31.3 °F 28.4 °F 29.98 in West 2 mph 6 mph 89% 0.00 in 0 W/m2
02:00 31.3 °F 28.4 °F 29.98 in West 5 mph 7 mph 89% 0.00 in 0 W/m2
02:10 31.3 °F 28.4 °F 29.98 in West 5 mph 10 mph 89% 0.00 in 0 W/m2
02:20 31.3 °F 28.4 °F 29.99 in West 6 mph 10 mph 89% 0.00 in 0 W/m2
02:30 31.2 °F 28.3 °F 29.99 in West 5 mph 8 mph 89% 0.00 in 0 W/m2
02:40 31.1 °F 28.5 °F 29.99 in WSW 5 mph 10 mph 90% 0.00 in 0 W/m2
02:50 31.1 °F 28.5 °F 29.99 in WSW 6 mph 8 mph 90% 0.00 in 0 W/m2
03:00 31.1 °F 28.5 °F 29.99 in WSW 5 mph 8 mph 90% 0.00 in 0 W/m2
03:10 31 °F 28.4 °F 29.99 in WSW 3 mph 10 mph 90% 0.00 in 0 W/m2
03:20 30.9 °F 28.3 °F 29.99 in WSW 3 mph 8 mph 90% 0.00 in 0 W/m2
03:30 31.1 °F 28.5 °F 29.99 in WSW 5 mph 8 mph 90% 0.00 in 0 W/m2
03:40 30.9 °F 28.3 °F 29.99 in WSW 6 mph 8 mph 90% 0.00 in 0 W/m2
03:50 30.9 °F 28.3 °F 29.99 in WSW 5 mph 8 mph 90% 0.00 in 0 W/m2
04:00 30.9 °F 28.3 °F 29.99 in WSW 5 mph 8 mph 90% 0.00 in 0 W/m2
04:10 30.9 °F 28.1 °F 29.99 in WSW 5 mph 9 mph 89% 0.00 in 0 W/m2
04:20 30.9 °F 28.1 °F 29.99 in SW 7 mph 13 mph 89% 0.00 in 0 W/m2
04:30 31.1 °F 28 °F 29.99 in WSW 8 mph 13 mph 88% 0.00 in 0 W/m2
04:40 31.1 °F 28 °F 29.99 in WSW 5 mph 12 mph 88% 0.00 in 0 W/m2
04:50 31 °F 27.8 °F 29.99 in WSW 6 mph 13 mph 88% 0.00 in 0 W/m2
05:00 31.1 °F 27.4 °F 30.00 in WSW 5 mph 13 mph 86% 0.00 in 0 W/m2
05:10 31 °F 27.3 °F 30.00 in WSW 7 mph 12 mph 86% 0.00 in 0 W/m2
05:20 30.9 °F 27.8 °F 30.00 in West 6 mph 12 mph 88% 0.00 in 0 W/m2
05:30 30.9 °F 27.8 °F 30.00 in West 5 mph 14 mph 88% 0.00 in 0 W/m2
05:40 30.7 °F 27.6 °F 30.00 in WSW 6 mph 8 mph 88% 0.00 in 0 W/m2
05:50 30.6 °F 27.7 °F 30.01 in WSW 3 mph 8 mph 89% 0.00 in 0 W/m2
06:00 30.4 °F 27.9 °F 30.01 in WSW 7 mph 16 mph 90% 0.00 in 0 W/m2
06:10 30.6 °F 27.7 °F 30.01 in WSW 7 mph 15 mph 89% 0.00 in 0 W/m2
06:20 30.7 °F 27.9 °F 30.02 in WSW 7 mph 16 mph 89% 0.00 in 0 W/m2
06:30 30.7 °F 27.9 °F 30.02 in WSW 5 mph 14 mph 89% 0.00 in 0 W/m2
06:40 30.7 °F 27.9 °F 30.02 in WSW 5 mph 9 mph 89% 0.00 in 0 W/m2
06:50 30.6 °F 27.7 °F 30.02 in WSW 3 mph 8 mph 89% 0.00 in 0 W/m2
07:00 30.4 °F 27.5 °F 30.02 in WSW 5 mph 10 mph 89% 0.00 in 0 W/m2
07:10 30.2 °F 27.6 °F 30.02 in WSW 5 mph 10 mph 90% 0.00 in 7 W/m2
07:20 30 °F 27.4 °F 30.03 in WSW 3 mph 9 mph 90% 0.00 in 11 W/m2
07:30 30.2 °F 27.6 °F 30.03 in WSW 6 mph 9 mph 90% 0.00 in 18 W/m2
07:40 30.5 °F 27.6 °F 30.04 in WSW 8 mph 12 mph 89% 0.00 in 28 W/m2
07:50 30.6 °F 27.7 °F 30.04 in WSW 5 mph 11 mph 89% 0.00 in 47 W/m2
08:00 30.7 °F 27.6 °F 30.04 in WSW 5 mph 10 mph 88% 0.00 in 62 W/m2
08:10 30.6 °F 27.7 °F 30.04 in SSW 2 mph 7 mph 89% 0.00 in 62 W/m2
08:20 30.6 °F 27.7 °F 30.04 in South 2 mph 4 mph 89% 0.00 in 97 W/m2
08:30 30.7 °F 28.2 °F 30.04 in SW 1 mph 4 mph 90% 0.00 in 141 W/m2
08:40 31.3 °F 28.4 °F 30.04 in West 1 mph 3 mph 89% 0.00 in 157 W/m2
08:50 31.6 °F 28.5 °F 30.04 in WSW 2 mph 8 mph 88% 0.00 in 181 W/m2
09:00 32.2 °F 29 °F 30.05 in WSW 2 mph 8 mph 88% 0.00 in 200 W/m2
09:10 32.9 °F 28.9 °F 30.05 in WSW 7 mph 11 mph 85% 0.00 in 219 W/m2
09:20 33.3 °F 28.9 °F 30.05 in WSW 9 mph 15 mph 84% 0.00 in 236 W/m2
09:30 33.4 °F 29.1 °F 30.05 in WSW 9 mph 15 mph 84% 0.00 in 220 W/m2
09:40 33.1 °F 28.8 °F 30.06 in West 6 mph 14 mph 84% 0.00 in 159 W/m2
09:50 33 °F 28.9 °F 30.06 in West 5 mph 11 mph 85% 0.00 in 159 W/m2
10:00 33.1 °F 28.8 °F 30.06 in WSW 8 mph 14 mph 84% 0.00 in 142 W/m2
10:10 32.9 °F 28.6 °F 30.06 in WSW 6 mph 14 mph 84% 0.00 in 132 W/m2
10:20 32.9 °F 28.6 °F 30.06 in WSW 5 mph 11 mph 84% 0.00 in 129 W/m2
10:30 32.7 °F 28.4 °F 30.06 in WSW 6 mph 15 mph 84% 0.00 in 146 W/m2
10:40 32.8 °F 28.5 °F 30.06 in WSW 5 mph 15 mph 84% 0.00 in 147 W/m2
10:50 32.9 °F 28.6 °F 30.05 in West 5 mph 10 mph 84% 0.00 in 146 W/m2
11:00 33.1 °F 28.8 °F 30.05 in West 6 mph 10 mph 84% 0.00 in 164 W/m2
11:10 33.2 °F 28.9 °F 30.05 in WNW 6 mph 12 mph 84% 0.00 in 201 W/m2
11:30 34 °F 29.4 °F 30.05 in West 6 mph 14 mph 83% 0.00 in 205 W/m2
11:40 34 °F 29.4 °F 30.04 in West 6 mph 12 mph 83% 0.00 in 96 W/m2
11:50 33.3 °F 28.7 °F 30.08 in West 3 mph 12 mph 83% 0.00 in 81 W/m2
12:00 32.9 °F 28.3 °F 30.08 in West 5 mph 12 mph 83% 0.00 in 105 W/m2
12:10 32.7 °F 28.4 °F 30.08 in West 5 mph 10 mph 84% 0.00 in 148 W/m2
12:20 32.7 °F 28.4 °F 30.08 in West 7 mph 11 mph 84% 0.00 in 163 W/m2
12:30 32.7 °F 28.4 °F 30.07 in West 6 mph 9 mph 84% 0.00 in 139 W/m2
12:40 32.7 °F 28.1 °F 30.07 in WSW 5 mph 8 mph 83% 0.00 in 141 W/m2
12:50 32.9 °F 28.6 °F 30.07 in WSW 6 mph 9 mph 84% 0.00 in 143 W/m2
13:00 32.9 °F 28.6 °F 30.07 in WSW 5 mph 10 mph 84% 0.00 in 156 W/m2
13:10 33.1 °F 28.5 °F 30.07 in WSW 5 mph 8 mph 83% 0.00 in 168 W/m2
13:20 33.2 °F 28 °F 30.06 in WSW 5 mph 9 mph 81% 0.00 in 175 W/m2
13:30 33.8 °F 28.2 °F 30.06 in WSW 5 mph 10 mph 80% 0.00 in 276 W/m2
13:40 35.4 °F 29.8 °F 30.06 in WSW 6 mph 9 mph 80% 0.00 in 260 W/m2
13:50 36.1 °F 29.6 °F 30.06 in WSW 7 mph 12 mph 77% 0.00 in 244 W/m2
14:00 35.6 °F 28.5 °F 30.06 in WSW 6 mph 13 mph 75% 0.00 in 136 W/m2
14:10 34.9 °F 27.8 °F 30.06 in WSW 7 mph 13 mph 75% 0.00 in 124 W/m2
14:20 34.3 °F 27.2 °F 30.06 in WSW 6 mph 13 mph 75% 0.00 in 126 W/m2
14:30 34.2 °F 26.7 °F 30.06 in West 7 mph 13 mph 74% 0.00 in 87 W/m2
14:40 34 °F 26.9 °F 30.06 in West 8 mph 13 mph 75% 0.00 in 72 W/m2
14:50 33.7 °F 27.2 °F 30.06 in WSW 7 mph 12 mph 77% 0.00 in 66 W/m2
15:00 33.6 °F 27.5 °F 30.07 in WSW 6 mph 12 mph 78% 0.00 in 53 W/m2
15:10 33.4 °F 27.3 °F 30.07 in WSW 3 mph 8 mph 78% 0.00 in 38 W/m2
15:20 33.4 °F 27.6 °F 30.07 in WSW 3 mph 8 mph 79% 0.00 in 25 W/m2
15:30 33.3 °F 27.5 °F 30.07 in WSW 2 mph 5 mph 79% 0.00 in 23 W/m2
15:40 33.3 °F 27.8 °F 30.07 in WSW 2 mph 4 mph 80% 0.00 in 19 W/m2
15:50 33.3 °F 27.8 °F 30.07 in WSW 1 mph 3 mph 80% 0.00 in 13 W/m2
16:00 33.3 °F 28.1 °F 30.07 in WSW 1 mph 2 mph 81% 0.00 in 3 W/m2
16:10 33.1 °F 28.5 °F 30.07 in WSW 1 mph 2 mph 83% 0.00 in 4 W/m2
16:20 32.9 °F 28.6 °F 30.07 in SW 1 mph 3 mph 84% 0.00 in 2 W/m2
16:30 32.8 °F 28.5 °F 30.07 in WSW 5 mph 7 mph 84% 0.00 in 0 W/m2
16:40 32.5 °F 28.5 °F 30.07 in WSW 5 mph 8 mph 85% 0.00 in 0 W/m2
16:50 32.4 °F 28.6 °F 30.07 in WSW 6 mph 8 mph 86% 0.00 in 0 W/m2
17:00 32.2 °F 28.5 °F 30.07 in WSW 3 mph 8 mph 86% 0.00 in 0 W/m2
17:10 32 °F 28.3 °F 30.07 in WSW 3 mph 6 mph 86% 0.00 in 0 W/m2
17:20 32 °F 28.3 °F 30.07 in SW 2 mph 5 mph 86% 0.00 in 0 W/m2
17:30 31.8 °F 28.7 °F 30.07 in WSW 1 mph 3 mph 88% 0.00 in 0 W/m2
17:40 31.8 °F 28.7 °F 30.07 in West 1 mph 3 mph 88% 0.00 in 0 W/m2
17:50 31.8 °F 28.7 °F 30.07 in NW 1 mph 2 mph 88% 0.00 in 0 W/m2
18:00 31.6 °F 28.5 °F 30.08 in Calm   3 mph 88% 0.00 in 0 W/m2
18:10 31.5 °F 28.3 °F 30.08 in West 2 mph 3 mph 88% 0.00 in 0 W/m2
18:20 31.5 °F 28.6 °F 30.08 in SW 2 mph 3 mph 89% 0.00 in 0 W/m2
18:30 31.3 °F 28.4 °F 30.08 in WSW 1 mph 3 mph 89% 0.00 in 0 W/m2
18:40 31.1 °F 28.3 °F 30.08 in SW 1 mph 2 mph 89% 0.00 in 0 W/m2
18:50 31.1 °F 28.2 °F 30.08 in WSW 1 mph 2 mph 89% 0.00 in 0 W/m2
19:00 30.9 °F 28.1 °F 30.08 in West 2 mph 4 mph 89% 0.00 in 0 W/m2
19:10 30.9 °F 28.3 °F 30.08 in West 1 mph 3 mph 90% 0.00 in 0 W/m2
19:20 30.7 °F 28.2 °F 30.08 in WSW 1 mph 3 mph 90% 0.00 in 0 W/m2
19:30 30.6 °F 28 °F 30.07 in SSW 5 mph 8 mph 90% 0.00 in 0 W/m2
19:40 30.6 °F 28 °F 30.07 in SW 2 mph 8 mph 90% 0.00 in 0 W/m2
19:50 30.5 °F 28 °F 30.07 in West 3 mph 5 mph 90% 0.00 in 0 W/m2
20:00 30.4 °F 27.8 °F 30.07 in NNE 2 mph 5 mph 90% 0.00 in 0 W/m2
20:10 30.4 °F 28.1 °F 30.08 in North 1 mph 4 mph 91% 0.00 in 0 W/m2
20:20 30.4 °F 27.8 °F 30.07 in SSE 2 mph 7 mph 90% 0.00 in 0 W/m2
20:30 30.6 °F 28 °F 30.07 in WSW 1 mph 8 mph 90% 0.00 in 0 W/m2
20:40 30.6 °F 28 °F 30.07 in SW 2 mph 4 mph 90% 0.00 in 0 W/m2
20:50 30.6 °F 28 °F 30.07 in SW 1 mph 6 mph 90% 0.00 in 0 W/m2
21:00 30.6 °F 28 °F 30.07 in SSE 1 mph 6 mph 90% 0.00 in 0 W/m2
21:10 30.6 °F 28 °F 30.07 in Calm   4 mph 90% 0.00 in 0 W/m2
21:20 30.6 °F 28 °F 30.07 in SW 1 mph 4 mph 90% 0.00 in 0 W/m2
21:30 30.6 °F 27.7 °F 30.07 in WSW 2 mph 6 mph 89% 0.00 in 0 W/m2
21:40 30.6 °F 27.7 °F 30.07 in WSW 1 mph 5 mph 89% 0.00 in 0 W/m2
21:50 30.6 °F 27.7 °F 30.07 in Calm   4 mph 89% 0.00 in 0 W/m2
22:00 30.6 °F 27.7 °F 30.07 in Calm   2 mph 89% 0.00 in 0 W/m2
22:10 30.5 °F 27.7 °F 30.07 in Calm   2 mph 89% 0.00 in 0 W/m2
22:20 30.5 °F 27.7 °F 30.07 in Calm   3 mph 89% 0.00 in 0 W/m2
22:30 30.4 °F 27.8 °F 30.07 in WSW 1 mph 2 mph 90% 0.00 in 0 W/m2
22:40 30.4 °F 27.8 °F 30.07 in West 1 mph 4 mph 90% 0.00 in 0 W/m2
22:50 30.2 °F 27.6 °F 30.07 in NE 1 mph 5 mph 90% 0.00 in 0 W/m2
23:00 30.2 °F 27.6 °F 30.07 in North 1 mph 3 mph 90% 0.00 in 0 W/m2
23:10 30.2 °F 27.6 °F 30.07 in WNW 1 mph 3 mph 90% 0.00 in 0 W/m2
23:20 30.2 °F 27.3 °F 30.07 in NNW 1 mph 6 mph 89% 0.00 in 0 W/m2
23:30 30.2 °F 27.3 °F 30.07 in WNW 2 mph 6 mph 89% 0.00 in 0 W/m2
23:40 30.2 °F 27.3 °F 30.07 in Calm   3 mph 89% 0.00 in 0 W/m2
23:50 30.2 °F 27.3 °F 30.07 in Calm   2 mph 89% 0.00 in 0 W/m2
Knjazevac, Serbia
Compliments of Weather Underground - 2 mb